sensor_id;sensor_type;location;lat;lon;timestamp;P1;durP1;ratioP1;P2;durP2;ratioP2
9330;SDS011;4704;50.470;12.072;2022-10-26T00:00:48;1.08;;;0.98;;
9330;SDS011;4704;50.470;12.072;2022-10-26T00:03:16;0.82;;;0.82;;
9330;SDS011;4704;50.470;12.072;2022-10-26T00:05:44;0.90;;;0.90;;
9330;SDS011;4704;50.470;12.072;2022-10-26T00:08:14;0.80;;;0.65;;
9330;SDS011;4704;50.470;12.072;2022-10-26T00:10:42;1.02;;;0.82;;
9330;SDS011;4704;50.470;12.072;2022-10-26T00:13:09;1.38;;;0.85;;
9330;SDS011;4704;50.470;12.072;2022-10-26T00:15:39;0.90;;;0.90;;
9330;SDS011;4704;50.470;12.072;2022-10-26T00:18:07;0.70;;;0.70;;
9330;SDS011;4704;50.470;12.072;2022-10-26T00:20:35;0.80;;;0.80;;
9330;SDS011;4704;50.470;12.072;2022-10-26T00:23:03;0.90;;;0.90;;
9330;SDS011;4704;50.470;12.072;2022-10-26T00:25:32;0.70;;;0.70;;
9330;SDS011;4704;50.470;12.072;2022-10-26T00:28:00;1.05;;;0.70;;
9330;SDS011;4704;50.470;12.072;2022-10-26T00:30:28;0.70;;;0.70;;
9330;SDS011;4704;50.470;12.072;2022-10-26T00:32:56;0.80;;;0.80;;
9330;SDS011;4704;50.470;12.072;2022-10-26T00:35:23;0.80;;;0.80;;
9330;SDS011;4704;50.470;12.072;2022-10-26T00:37:53;0.70;;;0.70;;
9330;SDS011;4704;50.470;12.072;2022-10-26T00:40:20;0.82;;;0.80;;
9330;SDS011;4704;50.470;12.072;2022-10-26T00:42:50;1.63;;;0.90;;
9330;SDS011;4704;50.470;12.072;2022-10-26T00:45:18;0.80;;;0.75;;
9330;SDS011;4704;50.470;12.072;2022-10-26T00:47:47;1.15;;;0.63;;
9330;SDS011;4704;50.470;12.072;2022-10-26T00:50:16;0.63;;;0.63;;
9330;SDS011;4704;50.470;12.072;2022-10-26T00:52:45;0.70;;;0.70;;
9330;SDS011;4704;50.470;12.072;2022-10-26T00:55:13;0.80;;;0.80;;
9330;SDS011;4704;50.470;12.072;2022-10-26T00:57:40;0.80;;;0.70;;
9330;SDS011;4704;50.470;12.072;2022-10-26T01:00:10;0.90;;;0.90;;
9330;SDS011;4704;50.470;12.072;2022-10-26T01:02:38;0.70;;;0.70;;
9330;SDS011;4704;50.470;12.072;2022-10-26T01:05:06;0.80;;;0.80;;
9330;SDS011;4704;50.470;12.072;2022-10-26T01:07:34;0.90;;;0.90;;
9330;SDS011;4704;50.470;12.072;2022-10-26T01:10:03;0.80;;;0.80;;
9330;SDS011;4704;50.470;12.072;2022-10-26T01:12:31;0.80;;;0.80;;
9330;SDS011;4704;50.470;12.072;2022-10-26T01:14:59;1.48;;;0.98;;
9330;SDS011;4704;50.470;12.072;2022-10-26T01:17:40;0.73;;;0.73;;
9330;SDS011;4704;50.470;12.072;2022-10-26T01:22:56;0.80;;;0.80;;
9330;SDS011;4704;50.470;12.072;2022-10-26T01:25:30;0.80;;;0.77;;
9330;SDS011;4704;50.470;12.072;2022-10-26T01:28:04;1.00;;;0.90;;
9330;SDS011;4704;50.470;12.072;2022-10-26T01:30:36;1.08;;;0.80;;
9330;SDS011;4704;50.470;12.072;2022-10-26T01:33:09;0.80;;;0.80;;
9330;SDS011;4704;50.470;12.072;2022-10-26T01:35:41;0.77;;;0.77;;
9330;SDS011;4704;50.470;12.072;2022-10-26T01:38:13;1.30;;;0.90;;
9330;SDS011;4704;50.470;12.072;2022-10-26T01:40:44;0.80;;;0.80;;
9330;SDS011;4704;50.470;12.072;2022-10-26T01:43:13;0.90;;;0.90;;
9330;SDS011;4704;50.470;12.072;2022-10-26T01:45:44;0.95;;;0.95;;
9330;SDS011;4704;50.470;12.072;2022-10-26T01:48:13;0.80;;;0.80;;
9330;SDS011;4704;50.470;12.072;2022-10-26T01:50:43;1.02;;;0.93;;
9330;SDS011;4704;50.470;12.072;2022-10-26T01:53:12;0.80;;;0.80;;
9330;SDS011;4704;50.470;12.072;2022-10-26T01:55:44;0.98;;;0.98;;
9330;SDS011;4704;50.470;12.072;2022-10-26T01:58:28;0.85;;;0.85;;
9330;SDS011;4704;50.470;12.072;2022-10-26T02:01:01;0.80;;;0.80;;
9330;SDS011;4704;50.470;12.072;2022-10-26T02:03:35;0.80;;;0.60;;
9330;SDS011;4704;50.470;12.072;2022-10-26T02:06:09;1.35;;;0.85;;
9330;SDS011;4704;50.470;12.072;2022-10-26T02:08:42;0.85;;;0.85;;
9330;SDS011;4704;50.470;12.072;2022-10-26T02:11:14;0.80;;;0.80;;
9330;SDS011;4704;50.470;12.072;2022-10-26T02:13:46;1.33;;;0.90;;
9330;SDS011;4704;50.470;12.072;2022-10-26T02:16:18;1.10;;;1.00;;
9330;SDS011;4704;50.470;12.072;2022-10-26T02:18:49;0.80;;;0.80;;
9330;SDS011;4704;50.470;12.072;2022-10-26T02:21:19;1.30;;;0.80;;
9330;SDS011;4704;50.470;12.072;2022-10-26T02:23:48;0.90;;;0.90;;
9330;SDS011;4704;50.470;12.072;2022-10-26T02:26:19;0.80;;;0.80;;
9330;SDS011;4704;50.470;12.072;2022-10-26T02:28:48;0.90;;;0.90;;
9330;SDS011;4704;50.470;12.072;2022-10-26T02:31:18;0.88;;;0.88;;
9330;SDS011;4704;50.470;12.072;2022-10-26T02:33:48;0.90;;;0.90;;
9330;SDS011;4704;50.470;12.072;2022-10-26T02:36:17;1.00;;;0.90;;
9330;SDS011;4704;50.470;12.072;2022-10-26T02:38:45;1.40;;;0.90;;
9330;SDS011;4704;50.470;12.072;2022-10-26T02:41:14;0.85;;;0.85;;
9330;SDS011;4704;50.470;12.072;2022-10-26T02:43:43;0.90;;;0.90;;
9330;SDS011;4704;50.470;12.072;2022-10-26T02:46:12;0.88;;;0.88;;
9330;SDS011;4704;50.470;12.072;2022-10-26T02:48:42;0.80;;;0.80;;
9330;SDS011;4704;50.470;12.072;2022-10-26T02:51:11;1.33;;;0.90;;
9330;SDS011;4704;50.470;12.072;2022-10-26T02:53:41;0.85;;;0.85;;
9330;SDS011;4704;50.470;12.072;2022-10-26T02:56:13;0.90;;;0.90;;
9330;SDS011;4704;50.470;12.072;2022-10-26T02:58:44;0.73;;;0.73;;
9330;SDS011;4704;50.470;12.072;2022-10-26T03:01:12;0.90;;;0.90;;
9330;SDS011;4704;50.470;12.072;2022-10-26T03:03:40;0.85;;;0.85;;
9330;SDS011;4704;50.470;12.072;2022-10-26T03:06:10;0.82;;;0.82;;
9330;SDS011;4704;50.470;12.072;2022-10-26T03:08:38;0.73;;;0.73;;
9330;SDS011;4704;50.470;12.072;2022-10-26T03:11:05;0.85;;;0.85;;
9330;SDS011;4704;50.470;12.072;2022-10-26T03:13:33;1.13;;;1.02;;
9330;SDS011;4704;50.470;12.072;2022-10-26T03:16:01;0.85;;;0.85;;
9330;SDS011;4704;50.470;12.072;2022-10-26T03:18:29;0.80;;;0.80;;
9330;SDS011;4704;50.470;12.072;2022-10-26T03:20:57;0.77;;;0.77;;
9330;SDS011;4704;50.470;12.072;2022-10-26T03:23:26;0.70;;;0.70;;
9330;SDS011;4704;50.470;12.072;2022-10-26T03:25:55;0.80;;;0.80;;
9330;SDS011;4704;50.470;12.072;2022-10-26T03:28:23;1.42;;;0.90;;
9330;SDS011;4704;50.470;12.072;2022-10-26T03:30:51;0.77;;;0.77;;
9330;SDS011;4704;50.470;12.072;2022-10-26T03:33:19;0.70;;;0.70;;
9330;SDS011;4704;50.470;12.072;2022-10-26T03:35:52;0.73;;;0.73;;
9330;SDS011;4704;50.470;12.072;2022-10-26T03:38:21;0.80;;;0.80;;
9330;SDS011;4704;50.470;12.072;2022-10-26T03:40:50;0.70;;;0.70;;
9330;SDS011;4704;50.470;12.072;2022-10-26T03:43:18;0.77;;;0.77;;
9330;SDS011;4704;50.470;12.072;2022-10-26T03:45:46;0.85;;;0.85;;
9330;SDS011;4704;50.470;12.072;2022-10-26T03:48:14;0.73;;;0.73;;
9330;SDS011;4704;50.470;12.072;2022-10-26T03:50:42;0.73;;;0.73;;
9330;SDS011;4704;50.470;12.072;2022-10-26T03:53:09;1.20;;;0.65;;
9330;SDS011;4704;50.470;12.072;2022-10-26T03:55:37;0.88;;;0.80;;
9330;SDS011;4704;50.470;12.072;2022-10-26T03:58:07;0.73;;;0.70;;
9330;SDS011;4704;50.470;12.072;2022-10-26T04:00:35;0.80;;;0.80;;
9330;SDS011;4704;50.470;12.072;2022-10-26T04:03:04;0.80;;;0.80;;
9330;SDS011;4704;50.470;12.072;2022-10-26T04:05:31;0.73;;;0.73;;
9330;SDS011;4704;50.470;12.072;2022-10-26T04:07:59;0.60;;;0.60;;
9330;SDS011;4704;50.470;12.072;2022-10-26T04:10:28;0.82;;;0.82;;
9330;SDS011;4704;50.470;12.072;2022-10-26T04:12:56;0.75;;;0.75;;
9330;SDS011;4704;50.470;12.072;2022-10-26T04:15:27;0.82;;;0.82;;
9330;SDS011;4704;50.470;12.072;2022-10-26T04:17:55;0.90;;;0.90;;
9330;SDS011;4704;50.470;12.072;2022-10-26T04:20:22;0.90;;;0.90;;
9330;SDS011;4704;50.470;12.072;2022-10-26T04:22:55;1.00;;;0.70;;
9330;SDS011;4704;50.470;12.072;2022-10-26T04:25:23;0.80;;;0.80;;
9330;SDS011;4704;50.470;12.072;2022-10-26T04:27:50;1.27;;;0.80;;
9330;SDS011;4704;50.470;12.072;2022-10-26T04:30:18;1.00;;;0.90;;
9330;SDS011;4704;50.470;12.072;2022-10-26T04:32:47;0.90;;;0.90;;
9330;SDS011;4704;50.470;12.072;2022-10-26T04:35:15;0.70;;;0.70;;
9330;SDS011;4704;50.470;12.072;2022-10-26T04:37:42;0.60;;;0.60;;
9330;SDS011;4704;50.470;12.072;2022-10-26T04:40:10;0.80;;;0.80;;
9330;SDS011;4704;50.470;12.072;2022-10-26T04:42:41;0.68;;;0.68;;
9330;SDS011;4704;50.470;12.072;2022-10-26T04:45:09;0.98;;;0.90;;
9330;SDS011;4704;50.470;12.072;2022-10-26T04:47:36;0.90;;;0.90;;
9330;SDS011;4704;50.470;12.072;2022-10-26T04:50:07;0.70;;;0.70;;
9330;SDS011;4704;50.470;12.072;2022-10-26T04:52:35;0.68;;;0.68;;
9330;SDS011;4704;50.470;12.072;2022-10-26T04:55:03;0.70;;;0.70;;
9330;SDS011;4704;50.470;12.072;2022-10-26T04:57:31;0.70;;;0.70;;
9330;SDS011;4704;50.470;12.072;2022-10-26T04:59:59;0.70;;;0.70;;
9330;SDS011;4704;50.470;12.072;2022-10-26T05:02:27;0.77;;;0.77;;
9330;SDS011;4704;50.470;12.072;2022-10-26T05:04:54;0.70;;;0.70;;
9330;SDS011;4704;50.470;12.072;2022-10-26T05:07:24;0.93;;;0.93;;
9330;SDS011;4704;50.470;12.072;2022-10-26T05:09:51;0.85;;;0.85;;
9330;SDS011;4704;50.470;12.072;2022-10-26T05:12:18;1.58;;;0.80;;
9330;SDS011;4704;50.470;12.072;2022-10-26T05:14:46;0.82;;;0.82;;
9330;SDS011;4704;50.470;12.072;2022-10-26T05:17:15;0.90;;;0.90;;
9330;SDS011;4704;50.470;12.072;2022-10-26T05:19:42;0.77;;;0.77;;
9330;SDS011;4704;50.470;12.072;2022-10-26T05:22:17;0.77;;;0.77;;
9330;SDS011;4704;50.470;12.072;2022-10-26T05:24:46;0.90;;;0.90;;
9330;SDS011;4704;50.470;12.072;2022-10-26T05:27:14;0.80;;;0.80;;
9330;SDS011;4704;50.470;12.072;2022-10-26T05:29:44;0.80;;;0.80;;
9330;SDS011;4704;50.470;12.072;2022-10-26T05:32:13;0.80;;;0.73;;
9330;SDS011;4704;50.470;12.072;2022-10-26T05:34:40;0.80;;;0.80;;
9330;SDS011;4704;50.470;12.072;2022-10-26T05:37:08;0.80;;;0.80;;
9330;SDS011;4704;50.470;12.072;2022-10-26T05:39:36;0.80;;;0.80;;
9330;SDS011;4704;50.470;12.072;2022-10-26T05:42:04;0.85;;;0.85;;
9330;SDS011;4704;50.470;12.072;2022-10-26T05:44:32;0.90;;;0.90;;
9330;SDS011;4704;50.470;12.072;2022-10-26T05:46:59;0.80;;;0.80;;
9330;SDS011;4704;50.470;12.072;2022-10-26T05:49:27;0.75;;;0.75;;
9330;SDS011;4704;50.470;12.072;2022-10-26T05:51:54;0.70;;;0.70;;
9330;SDS011;4704;50.470;12.072;2022-10-26T05:54:22;0.70;;;0.70;;
9330;SDS011;4704;50.470;12.072;2022-10-26T05:56:49;0.85;;;0.85;;
9330;SDS011;4704;50.470;12.072;2022-10-26T05:59:19;0.80;;;0.80;;
9330;SDS011;4704;50.470;12.072;2022-10-26T06:01:52;0.80;;;0.80;;
9330;SDS011;4704;50.470;12.072;2022-10-26T06:04:25;0.88;;;0.88;;
9330;SDS011;4704;50.470;12.072;2022-10-26T06:06:55;1.13;;;0.85;;
9330;SDS011;4704;50.470;12.072;2022-10-26T06:09:24;0.70;;;0.70;;
9330;SDS011;4704;50.470;12.072;2022-10-26T06:11:51;0.70;;;0.70;;
9330;SDS011;4704;50.470;12.072;2022-10-26T06:14:21;0.88;;;0.85;;
9330;SDS011;4704;50.470;12.072;2022-10-26T06:16:53;0.70;;;0.70;;
9330;SDS011;4704;50.470;12.072;2022-10-26T06:19:25;0.80;;;0.80;;
9330;SDS011;4704;50.470;12.072;2022-10-26T06:21:58;0.80;;;0.80;;
9330;SDS011;4704;50.470;12.072;2022-10-26T06:24:29;0.80;;;0.80;;
9330;SDS011;4704;50.470;12.072;2022-10-26T06:27:01;0.80;;;0.80;;
9330;SDS011;4704;50.470;12.072;2022-10-26T06:29:35;0.70;;;0.70;;
9330;SDS011;4704;50.470;12.072;2022-10-26T06:32:04;0.70;;;0.70;;
9330;SDS011;4704;50.470;12.072;2022-10-26T06:34:32;0.82;;;0.82;;
9330;SDS011;4704;50.470;12.072;2022-10-26T06:37:00;0.80;;;0.80;;
9330;SDS011;4704;50.470;12.072;2022-10-26T06:39:28;0.73;;;0.73;;
9330;SDS011;4704;50.470;12.072;2022-10-26T06:41:57;0.80;;;0.80;;
9330;SDS011;4704;50.470;12.072;2022-10-26T06:44:25;0.73;;;0.73;;
9330;SDS011;4704;50.470;12.072;2022-10-26T06:46:55;0.70;;;0.70;;
9330;SDS011;4704;50.470;12.072;2022-10-26T06:49:26;0.80;;;0.80;;
9330;SDS011;4704;50.470;12.072;2022-10-26T06:51:56;0.70;;;0.70;;
9330;SDS011;4704;50.470;12.072;2022-10-26T06:54:26;0.90;;;0.90;;
9330;SDS011;4704;50.470;12.072;2022-10-26T06:56:55;0.95;;;0.95;;
9330;SDS011;4704;50.470;12.072;2022-10-26T06:59:28;0.70;;;0.70;;
9330;SDS011;4704;50.470;12.072;2022-10-26T07:01:58;0.90;;;0.90;;
9330;SDS011;4704;50.470;12.072;2022-10-26T07:04:25;0.73;;;0.73;;
9330;SDS011;4704;50.470;12.072;2022-10-26T07:06:53;0.70;;;0.70;;
9330;SDS011;4704;50.470;12.072;2022-10-26T07:09:21;0.90;;;0.90;;
9330;SDS011;4704;50.470;12.072;2022-10-26T07:11:49;0.85;;;0.85;;
9330;SDS011;4704;50.470;12.072;2022-10-26T07:14:16;0.70;;;0.70;;
9330;SDS011;4704;50.470;12.072;2022-10-26T07:16:44;0.70;;;0.70;;
9330;SDS011;4704;50.470;12.072;2022-10-26T07:19:12;0.82;;;0.82;;
9330;SDS011;4704;50.470;12.072;2022-10-26T07:21:40;0.80;;;0.80;;
9330;SDS011;4704;50.470;12.072;2022-10-26T07:24:07;0.80;;;0.80;;
9330;SDS011;4704;50.470;12.072;2022-10-26T07:26:35;0.73;;;0.73;;
9330;SDS011;4704;50.470;12.072;2022-10-26T07:29:02;0.90;;;0.90;;
9330;SDS011;4704;50.470;12.072;2022-10-26T07:31:30;0.80;;;0.80;;
9330;SDS011;4704;50.470;12.072;2022-10-26T07:33:57;0.70;;;0.70;;
9330;SDS011;4704;50.470;12.072;2022-10-26T07:36:27;0.73;;;0.73;;
9330;SDS011;4704;50.470;12.072;2022-10-26T07:38:55;1.10;;;1.00;;
9330;SDS011;4704;50.470;12.072;2022-10-26T07:41:22;0.77;;;0.77;;
9330;SDS011;4704;50.470;12.072;2022-10-26T07:43:50;1.02;;;0.80;;
9330;SDS011;4704;50.470;12.072;2022-10-26T07:46:17;1.67;;;0.90;;
9330;SDS011;4704;50.470;12.072;2022-10-26T07:48:45;0.75;;;0.75;;
9330;SDS011;4704;50.470;12.072;2022-10-26T07:51:12;0.98;;;0.70;;
9330;SDS011;4704;50.470;12.072;2022-10-26T07:53:42;0.80;;;0.80;;
9330;SDS011;4704;50.470;12.072;2022-10-26T07:56:09;1.15;;;0.98;;
9330;SDS011;4704;50.470;12.072;2022-10-26T07:58:37;1.10;;;1.00;;
9330;SDS011;4704;50.470;12.072;2022-10-26T08:01:05;0.93;;;0.80;;
9330;SDS011;4704;50.470;12.072;2022-10-26T08:03:32;0.98;;;0.82;;
9330;SDS011;4704;50.470;12.072;2022-10-26T08:06:00;0.80;;;0.80;;
9330;SDS011;4704;50.470;12.072;2022-10-26T08:08:28;1.08;;;0.95;;
9330;SDS011;4704;50.470;12.072;2022-10-26T08:10:57;1.05;;;0.95;;
9330;SDS011;4704;50.470;12.072;2022-10-26T08:13:25;1.90;;;1.00;;
9330;SDS011;4704;50.470;12.072;2022-10-26T08:15:55;1.30;;;0.90;;
9330;SDS011;4704;50.470;12.072;2022-10-26T08:18:22;1.50;;;1.17;;
9330;SDS011;4704;50.470;12.072;2022-10-26T08:20:50;1.33;;;0.98;;
9330;SDS011;4704;50.470;12.072;2022-10-26T08:23:17;1.08;;;0.90;;
9330;SDS011;4704;50.470;12.072;2022-10-26T08:25:45;1.20;;;0.93;;
9330;SDS011;4704;50.470;12.072;2022-10-26T08:28:14;1.08;;;0.98;;
9330;SDS011;4704;50.470;12.072;2022-10-26T08:30:41;1.70;;;0.82;;
9330;SDS011;4704;50.470;12.072;2022-10-26T08:33:08;1.13;;;1.02;;
9330;SDS011;4704;50.470;12.072;2022-10-26T08:35:37;1.60;;;1.00;;
9330;SDS011;4704;50.470;12.072;2022-10-26T08:38:04;1.73;;;1.00;;
9330;SDS011;4704;50.470;12.072;2022-10-26T08:40:32;1.52;;;1.00;;
9330;SDS011;4704;50.470;12.072;2022-10-26T08:43:01;1.02;;;0.93;;
9330;SDS011;4704;50.470;12.072;2022-10-26T08:45:32;2.13;;;1.27;;
9330;SDS011;4704;50.470;12.072;2022-10-26T08:48:04;1.95;;;0.90;;
9330;SDS011;4704;50.470;12.072;2022-10-26T08:50:33;1.40;;;0.90;;
9330;SDS011;4704;50.470;12.072;2022-10-26T08:53:02;2.10;;;1.20;;
9330;SDS011;4704;50.470;12.072;2022-10-26T08:55:32;2.55;;;1.20;;
9330;SDS011;4704;50.470;12.072;2022-10-26T08:58:01;1.40;;;0.90;;
9330;SDS011;4704;50.470;12.072;2022-10-26T09:00:33;1.83;;;1.05;;
9330;SDS011;4704;50.470;12.072;2022-10-26T09:03:01;1.42;;;1.00;;
9330;SDS011;4704;50.470;12.072;2022-10-26T09:05:40;1.10;;;1.00;;
9330;SDS011;4704;50.470;12.072;2022-10-26T09:08:13;1.48;;;0.88;;
9330;SDS011;4704;50.470;12.072;2022-10-26T09:10:48;1.42;;;0.90;;
9330;SDS011;4704;50.470;12.072;2022-10-26T09:13:19;1.80;;;1.05;;
9330;SDS011;4704;50.470;12.072;2022-10-26T09:15:55;1.20;;;0.85;;
9330;SDS011;4704;50.470;12.072;2022-10-26T09:18:27;2.83;;;1.00;;
9330;SDS011;4704;50.470;12.072;2022-10-26T09:21:02;2.00;;;0.90;;
9330;SDS011;4704;50.470;12.072;2022-10-26T09:23:38;1.42;;;0.93;;
9330;SDS011;4704;50.470;12.072;2022-10-26T09:26:12;2.70;;;1.13;;
9330;SDS011;4704;50.470;12.072;2022-10-26T09:28:40;1.75;;;1.08;;
9330;SDS011;4704;50.470;12.072;2022-10-26T09:31:11;3.17;;;1.30;;
9330;SDS011;4704;50.470;12.072;2022-10-26T09:33:40;4.07;;;1.20;;
9330;SDS011;4704;50.470;12.072;2022-10-26T09:36:07;1.65;;;1.20;;
9330;SDS011;4704;50.470;12.072;2022-10-26T09:38:38;3.55;;;1.15;;
9330;SDS011;4704;50.470;12.072;2022-10-26T09:41:09;2.40;;;1.30;;
9330;SDS011;4704;50.470;12.072;2022-10-26T09:43:40;4.30;;;1.42;;
9330;SDS011;4704;50.470;12.072;2022-10-26T09:46:11;2.58;;;1.30;;
9330;SDS011;4704;50.470;12.072;2022-10-26T09:48:40;3.45;;;1.65;;
9330;SDS011;4704;50.470;12.072;2022-10-26T09:51:09;1.88;;;1.48;;
9330;SDS011;4704;50.470;12.072;2022-10-26T09:53:36;2.50;;;1.30;;
9330;SDS011;4704;50.470;12.072;2022-10-26T09:56:04;3.17;;;1.60;;
9330;SDS011;4704;50.470;12.072;2022-10-26T09:58:34;2.85;;;1.73;;
9330;SDS011;4704;50.470;12.072;2022-10-26T10:01:02;2.35;;;1.63;;
9330;SDS011;4704;50.470;12.072;2022-10-26T10:03:31;2.92;;;1.80;;
9330;SDS011;4704;50.470;12.072;2022-10-26T10:06:15;2.53;;;1.70;;
9330;SDS011;4704;50.470;12.072;2022-10-26T10:08:45;2.60;;;1.88;;
9330;SDS011;4704;50.470;12.072;2022-10-26T10:11:35;3.03;;;1.70;;
9330;SDS011;4704;50.470;12.072;2022-10-26T10:14:05;3.10;;;1.77;;
9330;SDS011;4704;50.470;12.072;2022-10-26T10:16:33;2.05;;;1.50;;
9330;SDS011;4704;50.470;12.072;2022-10-26T10:19:03;2.08;;;1.70;;
9330;SDS011;4704;50.470;12.072;2022-10-26T10:21:34;2.35;;;1.60;;
9330;SDS011;4704;50.470;12.072;2022-10-26T10:24:02;2.33;;;1.70;;
9330;SDS011;4704;50.470;12.072;2022-10-26T10:26:54;2.88;;;1.80;;
9330;SDS011;4704;50.470;12.072;2022-10-26T10:29:23;2.45;;;1.83;;
9330;SDS011;4704;50.470;12.072;2022-10-26T10:31:54;2.83;;;1.80;;
9330;SDS011;4704;50.470;12.072;2022-10-26T10:34:23;4.60;;;2.03;;
9330;SDS011;4704;50.470;12.072;2022-10-26T10:36:51;2.92;;;1.80;;
9330;SDS011;4704;50.470;12.072;2022-10-26T10:42:04;3.35;;;1.80;;
9330;SDS011;4704;50.470;12.072;2022-10-26T10:44:32;2.08;;;1.73;;
9330;SDS011;4704;50.470;12.072;2022-10-26T10:47:00;2.53;;;1.55;;
9330;SDS011;4704;50.470;12.072;2022-10-26T10:49:30;2.03;;;1.70;;
9330;SDS011;4704;50.470;12.072;2022-10-26T10:51:57;1.98;;;1.60;;
9330;SDS011;4704;50.470;12.072;2022-10-26T10:54:26;3.00;;;1.83;;
9330;SDS011;4704;50.470;12.072;2022-10-26T10:56:56;1.55;;;1.45;;
9330;SDS011;4704;50.470;12.072;2022-10-26T10:59:41;2.33;;;1.40;;
9330;SDS011;4704;50.470;12.072;2022-10-26T11:02:16;2.45;;;1.42;;
9330;SDS011;4704;50.470;12.072;2022-10-26T11:04:53;1.83;;;1.52;;
9330;SDS011;4704;50.470;12.072;2022-10-26T11:07:25;1.83;;;1.60;;
9330;SDS011;4704;50.470;12.072;2022-10-26T11:09:54;1.90;;;1.58;;
9330;SDS011;4704;50.470;12.072;2022-10-26T11:12:23;2.33;;;1.83;;
9330;SDS011;4704;50.470;12.072;2022-10-26T11:14:54;2.28;;;1.70;;
9330;SDS011;4704;50.470;12.072;2022-10-26T11:17:24;2.58;;;1.80;;
9330;SDS011;4704;50.470;12.072;2022-10-26T11:19:54;2.35;;;1.42;;
9330;SDS011;4704;50.470;12.072;2022-10-26T11:22:24;2.20;;;1.65;;
9330;SDS011;4704;50.470;12.072;2022-10-26T11:24:53;1.80;;;1.40;;
9330;SDS011;4704;50.470;12.072;2022-10-26T11:27:24;1.88;;;1.58;;
9330;SDS011;4704;50.470;12.072;2022-10-26T11:29:53;1.92;;;1.48;;
9330;SDS011;4704;50.470;12.072;2022-10-26T11:32:24;1.63;;;1.50;;
9330;SDS011;4704;50.470;12.072;2022-10-26T11:34:57;1.50;;;1.40;;
9330;SDS011;4704;50.470;12.072;2022-10-26T11:37:27;1.60;;;1.40;;
9330;SDS011;4704;50.470;12.072;2022-10-26T11:40:01;1.80;;;1.50;;
9330;SDS011;4704;50.470;12.072;2022-10-26T11:42:29;1.80;;;1.60;;
9330;SDS011;4704;50.470;12.072;2022-10-26T11:45:01;2.17;;;1.50;;
9330;SDS011;4704;50.470;12.072;2022-10-26T11:47:31;2.08;;;1.50;;
9330;SDS011;4704;50.470;12.072;2022-10-26T11:50:03;1.80;;;1.50;;
9330;SDS011;4704;50.470;12.072;2022-10-26T11:52:34;2.45;;;1.67;;
9330;SDS011;4704;50.470;12.072;2022-10-26T11:55:04;3.05;;;1.63;;
9330;SDS011;4704;50.470;12.072;2022-10-26T11:57:32;1.75;;;1.55;;
9330;SDS011;4704;50.470;12.072;2022-10-26T12:00:00;2.33;;;1.30;;
9330;SDS011;4704;50.470;12.072;2022-10-26T12:02:28;1.50;;;1.40;;
9330;SDS011;4704;50.470;12.072;2022-10-26T12:04:58;1.77;;;1.42;;
9330;SDS011;4704;50.470;12.072;2022-10-26T12:07:30;2.08;;;1.40;;
9330;SDS011;4704;50.470;12.072;2022-10-26T12:09:59;1.67;;;1.27;;
9330;SDS011;4704;50.470;12.072;2022-10-26T12:12:31;2.10;;;1.30;;
9330;SDS011;4704;50.470;12.072;2022-10-26T12:15:04;1.75;;;1.40;;
9330;SDS011;4704;50.470;12.072;2022-10-26T12:17:34;1.73;;;1.38;;
9330;SDS011;4704;50.470;12.072;2022-10-26T12:20:05;2.08;;;1.50;;
9330;SDS011;4704;50.470;12.072;2022-10-26T12:22:38;1.80;;;1.60;;
9330;SDS011;4704;50.470;12.072;2022-10-26T12:25:17;1.77;;;1.65;;
9330;SDS011;4704;50.470;12.072;2022-10-26T12:27:49;1.85;;;1.40;;
9330;SDS011;4704;50.470;12.072;2022-10-26T12:30:27;2.10;;;1.40;;
9330;SDS011;4704;50.470;12.072;2022-10-26T12:32:55;1.50;;;1.40;;
9330;SDS011;4704;50.470;12.072;2022-10-26T12:35:33;1.63;;;1.42;;
9330;SDS011;4704;50.470;12.072;2022-10-26T12:38:25;2.38;;;1.73;;
9330;SDS011;4704;50.470;12.072;2022-10-26T12:41:06;2.58;;;1.60;;
9330;SDS011;4704;50.470;12.072;2022-10-26T12:43:36;1.77;;;1.48;;
9330;SDS011;4704;50.470;12.072;2022-10-26T12:48:50;1.85;;;1.30;;
9330;SDS011;4704;50.470;12.072;2022-10-26T12:54:03;1.70;;;1.45;;
9330;SDS011;4704;50.470;12.072;2022-10-26T12:56:35;2.17;;;1.40;;
9330;SDS011;4704;50.470;12.072;2022-10-26T12:59:11;2.28;;;1.38;;
9330;SDS011;4704;50.470;12.072;2022-10-26T13:01:48;2.13;;;1.40;;
9330;SDS011;4704;50.470;12.072;2022-10-26T13:04:23;1.33;;;1.23;;
9330;SDS011;4704;50.470;12.072;2022-10-26T13:06:57;1.50;;;1.40;;
9330;SDS011;4704;50.470;12.072;2022-10-26T13:09:28;1.90;;;1.48;;
9330;SDS011;4704;50.470;12.072;2022-10-26T13:11:57;1.77;;;1.38;;
9330;SDS011;4704;50.470;12.072;2022-10-26T13:14:27;1.42;;;1.20;;
9330;SDS011;4704;50.470;12.072;2022-10-26T13:16:56;2.45;;;1.50;;
9330;SDS011;4704;50.470;12.072;2022-10-26T13:19:29;1.55;;;1.40;;
9330;SDS011;4704;50.470;12.072;2022-10-26T13:21:58;1.50;;;1.35;;
9330;SDS011;4704;50.470;12.072;2022-10-26T13:24:28;1.40;;;1.30;;
9330;SDS011;4704;50.470;12.072;2022-10-26T13:32:40;1.50;;;1.33;;
9330;SDS011;4704;50.470;12.072;2022-10-26T13:35:09;1.35;;;1.20;;
9330;SDS011;4704;50.470;12.072;2022-10-26T13:37:40;1.77;;;1.15;;
9330;SDS011;4704;50.470;12.072;2022-10-26T13:40:11;1.40;;;1.15;;
9330;SDS011;4704;50.470;12.072;2022-10-26T13:42:43;1.42;;;1.33;;
9330;SDS011;4704;50.470;12.072;2022-10-26T13:45:12;1.98;;;1.50;;
9330;SDS011;4704;50.470;12.072;2022-10-26T13:47:41;1.50;;;1.17;;
9330;SDS011;4704;50.470;12.072;2022-10-26T13:50:12;1.50;;;1.40;;
9330;SDS011;4704;50.470;12.072;2022-10-26T13:52:42;1.35;;;1.25;;
9330;SDS011;4704;50.470;12.072;2022-10-26T13:55:14;1.30;;;1.20;;
9330;SDS011;4704;50.470;12.072;2022-10-26T13:57:48;4.10;;;1.40;;
9330;SDS011;4704;50.470;12.072;2022-10-26T14:00:23;1.60;;;1.30;;
9330;SDS011;4704;50.470;12.072;2022-10-26T14:02:51;1.42;;;1.27;;
9330;SDS011;4704;50.470;12.072;2022-10-26T14:05:18;1.85;;;1.20;;
9330;SDS011;4704;50.470;12.072;2022-10-26T14:07:46;1.67;;;1.30;;
9330;SDS011;4704;50.470;12.072;2022-10-26T14:10:24;1.20;;;1.10;;
9330;SDS011;4704;50.470;12.072;2022-10-26T14:12:53;1.00;;;1.00;;
9330;SDS011;4704;50.470;12.072;2022-10-26T14:15:22;1.30;;;1.20;;
9330;SDS011;4704;50.470;12.072;2022-10-26T14:17:50;1.60;;;1.10;;
9330;SDS011;4704;50.470;12.072;2022-10-26T14:20:18;1.30;;;1.20;;
9330;SDS011;4704;50.470;12.072;2022-10-26T14:22:46;1.40;;;1.10;;
9330;SDS011;4704;50.470;12.072;2022-10-26T14:25:16;1.33;;;1.10;;
9330;SDS011;4704;50.470;12.072;2022-10-26T14:27:45;1.20;;;1.10;;
9330;SDS011;4704;50.470;12.072;2022-10-26T14:30:20;1.45;;;1.30;;
9330;SDS011;4704;50.470;12.072;2022-10-26T14:32:49;1.60;;;1.25;;
9330;SDS011;4704;50.470;12.072;2022-10-26T14:35:16;1.67;;;1.13;;
9330;SDS011;4704;50.470;12.072;2022-10-26T14:37:45;1.20;;;1.10;;
9330;SDS011;4704;50.470;12.072;2022-10-26T14:40:15;1.40;;;1.30;;
9330;SDS011;4704;50.470;12.072;2022-10-26T14:42:46;1.30;;;1.20;;
9330;SDS011;4704;50.470;12.072;2022-10-26T14:45:21;1.17;;;1.08;;
9330;SDS011;4704;50.470;12.072;2022-10-26T14:47:51;1.23;;;1.13;;
9330;SDS011;4704;50.470;12.072;2022-10-26T14:50:18;1.20;;;1.10;;
9330;SDS011;4704;50.470;12.072;2022-10-26T14:52:50;1.60;;;1.40;;
9330;SDS011;4704;50.470;12.072;2022-10-26T14:55:18;1.20;;;1.10;;
9330;SDS011;4704;50.470;12.072;2022-10-26T14:57:49;1.20;;;1.08;;
9330;SDS011;4704;50.470;12.072;2022-10-26T15:00:18;1.23;;;1.00;;
9330;SDS011;4704;50.470;12.072;2022-10-26T15:02:46;1.20;;;1.10;;
9330;SDS011;4704;50.470;12.072;2022-10-26T15:05:16;1.15;;;1.05;;
9330;SDS011;4704;50.470;12.072;2022-10-26T15:07:44;1.10;;;1.00;;
9330;SDS011;4704;50.470;12.072;2022-10-26T15:13:06;1.48;;;1.20;;
9330;SDS011;4704;50.470;12.072;2022-10-26T15:15:34;1.15;;;1.10;;
9330;SDS011;4704;50.470;12.072;2022-10-26T15:18:02;1.27;;;1.17;;
9330;SDS011;4704;50.470;12.072;2022-10-26T15:20:30;1.20;;;1.10;;
9330;SDS011;4704;50.470;12.072;2022-10-26T15:22:58;1.20;;;1.10;;
9330;SDS011;4704;50.470;12.072;2022-10-26T15:25:26;1.10;;;1.00;;
9330;SDS011;4704;50.470;12.072;2022-10-26T15:28:06;1.20;;;1.10;;
9330;SDS011;4704;50.470;12.072;2022-10-26T15:30:36;1.00;;;1.00;;
9330;SDS011;4704;50.470;12.072;2022-10-26T15:33:09;1.27;;;1.10;;
9330;SDS011;4704;50.470;12.072;2022-10-26T15:35:44;1.00;;;0.90;;